Burlington, WA (98233)

8:52 PM PDT on October 22, 2014 (GMT -0700)
Bow | Change Station
CLOSE
Current Station
Personal Weather Station
Location: Bow, WA
Elevation: 85 ft
Nearby Weather Stations

Elev 85 ft 48.54 °N, 122.37 °W | Updated 1 minute ago

Overcast
Overcast
55.2 °F
Feels Like 55.2 °F
N
4.3
Wind Variable Wind from East
Gusts 12.0 mph

Today
High -- | Low -- °F
--% Chance of Precip.
Yesterday
High -- | Low -- °F
Precip. -- in
7:40 AM 6:06 PM
Waning Crescent, 1% visible
Pressure 29.52 in
Visibility 10.0 miles
Clouds Mostly Cloudy 1000 ft
Mostly Cloudy 2000 ft
Overcast 4000 ft
Dew Point 52 °F
Humidity 90%
Rainfall 0.58 in
Snow Depth Not available.
UV 0 out of 12
Pollen .40 out of 12
PM2.5 Good
Flu Activity Sporadic
METAR KNUW 230256Z 14019G24KT 10SM BKN010 BKN020 OVC040 15/11 A2951 RMK AO2 PK WND 14035/0235 SLP997 60003 T01500111 55023

More Conditions Fewer Conditions

Pressure 29.52 in
Visibility 10.0 miles
Clouds Mostly Cloudy 1000 ft
Mostly Cloudy 2000 ft
Overcast 4000 ft
Dew Point 52 °F
Humidity 90%
Rainfall 0.58 in
Snow Depth Not available.
UV 0 out of 12
Pollen .40 out of 12
PM2.5 Good
Flu Activity Sporadic
METAR KNUW 230256Z 14019G24KT 10SM BKN010 BKN020 OVC040 15/11 A2951 RMK AO2 PK WND 14035/0235 SLP997 60003 T01500111 55023

More Conditions Fewer Conditions

10-Day Weather Forecast

Almanac

Astronomy

Oct. 22, 2014 Rise Set
Actual Time 7:40 AM PDT 6:06 PM PDT
Civil Twilight 7:08 AM PDT 6:38 PM PDT
Nautical Twilight 6:31 AM PDT 7:15 PM PDT
Astronomical Twilight 5:55 AM PDT 7:51 PM PDT
Moon 6:21 AM PDT (10/22) 5:40 PM PDT (10/22)
Length of Visible Light 11h 30m
Length of Day
10h 26m
Tomorrow will be 3m 21s shorter.
Waning Crescent, 1% of the Moon is Illuminated
Today
Waning Crescent
Oct 23
New
Oct 30
First Quarter
Nov 6
Full
Nov 14
Last Quarter

Today's Extremes

State Highs State Lows

Community

WunderPhotos

Upload Photos

1,764,130 photos uploaded!

Nearby

Air Quality

  Air Quality AQ Index Pollutant
Yesterday Good
OZONE
Yesterday Good
PM2.5
Current Good
PM2.5
Wednesday Good
OZONE
Wednesday Good
PM2.5
Thursday Good
OZONE
Thursday Good
PM2.5
Friday Good
OZONE
Friday Good
PM2.5

Snow Depth

Station Depth Elevation
Elbow Lake 0 in 3200 ft
Mf Nooksack 1 in 4980 ft
Wells Creek 0 in 4200 ft
Dungeness 0 in 4100 ft
Beaver Pass 0 in 3620 ft

Earthquake Activity

City Distance Mag. Time & Date
No recent earthquake activity has been reported nearby.
Minimum magnitude displayed is 2.5.

Coastal Water Temperatures

Place Temperature
Port Townsend, WA 53.1 °F
Friday Harbor, WA 51.1 °F
Port Angeles, WA 57.0 °F

Nearby Weather Stations